Belvidere, New Jersey
Current Conditions -  °F | °C
As of 8:51 PM on Saturday 22 Nov 2014 (Local Time) from KABE Reporting Station
Overcast Overcast  
Wind Chill: 37°   Ceiling: 7000
Heat Index: 41°   Visibility: 10mi
Dew Point: 19°   Wind: 6mph
Humidity: 41%   Direction: 270°W
Pressure: 30.23"   Gusts: NA
Location:  40.83°N, 75.08°W
Report Text: KABE 230151Z 27005KT 10SM OVC070 05/M07 A3023 RMK AO2 SLP240 T00501072
Loading
Personal Weather Stations






























Interactive Weather Map New forecast layout! Learn more

10-Day Weather Forecast

Advertisements
Track Severe Weather on mobile